sensor_id;sensor_type;location;lat;lon;timestamp;P1;P2;P0
65680;PMS5003;61747;54.966;73.394;2022-08-21T00:00:12;21.00;19.00;10.00
65680;PMS5003;61747;54.966;73.394;2022-08-21T00:02:44;19.00;18.00;9.00
65680;PMS5003;61747;54.966;73.394;2022-08-21T00:05:10;19.00;17.00;8.00
65680;PMS5003;61747;54.966;73.394;2022-08-21T00:07:36;19.00;16.33;8.00
65680;PMS5003;61747;54.966;73.394;2022-08-21T00:10:03;17.50;16.25;8.00
65680;PMS5003;61747;54.966;73.394;2022-08-21T00:12:33;20.00;16.25;8.00
65680;PMS5003;61747;54.966;73.394;2022-08-21T00:14:59;22.00;16.00;6.33
65680;PMS5003;61747;54.966;73.394;2022-08-21T00:17:29;17.00;13.25;4.00
65680;PMS5003;61747;54.966;73.394;2022-08-21T00:19:55;16.00;13.00;5.00
65680;PMS5003;61747;54.966;73.394;2022-08-21T00:22:21;18.00;13.00;5.00
65680;PMS5003;61747;54.966;73.394;2022-08-21T00:24:47;16.00;12.00;5.00
65680;PMS5003;61747;54.966;73.394;2022-08-21T00:27:22;17.75;16.00;7.50
65680;PMS5003;61747;54.966;73.394;2022-08-21T00:29:48;17.67;16.00;6.00
65680;PMS5003;61747;54.966;73.394;2022-08-21T00:32:18;16.33;16.00;7.00
65680;PMS5003;61747;54.966;73.394;2022-08-21T00:34:55;17.00;14.00;5.00
65680;PMS5003;61747;54.966;73.394;2022-08-21T00:37:20;16.33;14.00;5.00
65680;PMS5003;61747;54.966;73.394;2022-08-21T00:39:50;17.00;14.75;6.00
65680;PMS5003;61747;54.966;73.394;2022-08-21T00:42:16;16.33;16.00;5.00
65680;PMS5003;61747;54.966;73.394;2022-08-21T00:44:48;15.00;15.00;5.75
65680;PMS5003;61747;54.966;73.394;2022-08-21T00:47:14;15.00;13.00;5.25
65680;PMS5003;61747;54.966;73.394;2022-08-21T00:49:40;15.00;13.00;4.00
65680;PMS5003;61747;54.966;73.394;2022-08-21T00:52:07;13.67;12.33;6.00
65680;PMS5003;61747;54.966;73.394;2022-08-21T00:54:44;14.25;13.00;5.00
65680;PMS5003;61747;54.966;73.394;2022-08-21T00:57:15;15.25;12.25;5.75
65680;PMS5003;61747;54.966;73.394;2022-08-21T00:59:45;16.00;14.00;7.00
65680;PMS5003;61747;54.966;73.394;2022-08-21T01:02:12;14.00;13.00;6.00
65680;PMS5003;61747;54.966;73.394;2022-08-21T01:04:37;14.00;12.00;4.00
65680;PMS5003;61747;54.966;73.394;2022-08-21T01:07:03;14.50;13.00;5.25
65680;PMS5003;61747;54.966;73.394;2022-08-21T01:09:29;16.25;13.25;6.25
65680;PMS5003;61747;54.966;73.394;2022-08-21T01:11:55;16.00;13.33;6.00
65680;PMS5003;61747;54.966;73.394;2022-08-21T01:14:22;17.00;14.00;6.00
65680;PMS5003;61747;54.966;73.394;2022-08-21T01:16:48;16.50;14.00;5.25
65680;PMS5003;61747;54.966;73.394;2022-08-21T01:19:15;15.50;13.50;6.00
65680;PMS5003;61747;54.966;73.394;2022-08-21T01:21:42;16.00;13.00;4.00
65680;PMS5003;61747;54.966;73.394;2022-08-21T01:24:08;15.00;9.50;4.00
65680;PMS5003;61747;54.966;73.394;2022-08-21T01:26:35;14.75;9.25;4.25
65680;PMS5003;61747;54.966;73.394;2022-08-21T01:29:09;15.00;10.00;5.00
65680;PMS5003;61747;54.966;73.394;2022-08-21T01:31:37;14.50;9.00;4.00
65680;PMS5003;61747;54.966;73.394;2022-08-21T01:34:23;15.00;10.00;4.50
65680;PMS5003;61747;54.966;73.394;2022-08-21T01:37:04;14.00;9.00;4.25
65680;PMS5003;61747;54.966;73.394;2022-08-21T01:42:34;14.00;6.25;3.00
65680;PMS5003;61747;54.966;73.394;2022-08-21T01:44:59;10.75;5.00;1.00
65680;PMS5003;61747;54.966;73.394;2022-08-21T01:47:26;10.00;5.50;2.00
65680;PMS5003;61747;54.966;73.394;2022-08-21T01:49:52;7.75;5.00;1.25
65680;PMS5003;61747;54.966;73.394;2022-08-21T01:52:18;5.75;5.00;1.75
65680;PMS5003;61747;54.966;73.394;2022-08-21T01:54:44;7.00;5.00;2.25
65680;PMS5003;61747;54.966;73.394;2022-08-21T01:57:10;6.00;5.00;3.00
65680;PMS5003;61747;54.966;73.394;2022-08-21T01:59:37;7.00;6.00;3.00
65680;PMS5003;61747;54.966;73.394;2022-08-21T02:02:03;7.00;5.00;2.00
65680;PMS5003;61747;54.966;73.394;2022-08-21T02:04:29;8.50;6.75;0.25
65680;PMS5003;61747;54.966;73.394;2022-08-21T02:06:56;9.00;5.50;1.00
65680;PMS5003;61747;54.966;73.394;2022-08-21T02:09:21;8.25;6.00;2.00
65680;PMS5003;61747;54.966;73.394;2022-08-21T02:11:47;10.00;6.00;2.00
65680;PMS5003;61747;54.966;73.394;2022-08-21T02:14:17;5.00;5.00;2.00
65680;PMS5003;61747;54.966;73.394;2022-08-21T02:16:44;8.00;6.00;2.25
65680;PMS5003;61747;54.966;73.394;2022-08-21T02:19:10;5.00;5.00;3.00
65680;PMS5003;61747;54.966;73.394;2022-08-21T02:21:36;5.00;5.00;1.00
65680;PMS5003;61747;54.966;73.394;2022-08-21T02:24:03;5.25;5.00;2.75
65680;PMS5003;61747;54.966;73.394;2022-08-21T02:26:29;6.00;5.75;3.00
65680;PMS5003;61747;54.966;73.394;2022-08-21T02:28:54;7.00;5.00;3.00
65680;PMS5003;61747;54.966;73.394;2022-08-21T02:31:20;6.00;5.00;2.00
65680;PMS5003;61747;54.966;73.394;2022-08-21T02:33:51;9.75;6.50;3.25
65680;PMS5003;61747;54.966;73.394;2022-08-21T02:36:17;9.50;8.50;3.00
65680;PMS5003;61747;54.966;73.394;2022-08-21T02:38:44;9.00;7.00;3.00
65680;PMS5003;61747;54.966;73.394;2022-08-21T02:41:11;10.33;8.00;4.00
65680;PMS5003;61747;54.966;73.394;2022-08-21T02:43:37;7.50;6.00;4.00
65680;PMS5003;61747;54.966;73.394;2022-08-21T02:46:03;6.00;6.00;3.00
65680;PMS5003;61747;54.966;73.394;2022-08-21T02:48:30;6.75;6.00;3.00
65680;PMS5003;61747;54.966;73.394;2022-08-21T02:53:27;8.00;7.75;3.00
65680;PMS5003;61747;54.966;73.394;2022-08-21T02:55:54;7.50;6.00;2.00
65680;PMS5003;61747;54.966;73.394;2022-08-21T02:58:23;8.00;7.00;3.00
65680;PMS5003;61747;54.966;73.394;2022-08-21T03:00:49;8.00;6.00;2.00
65680;PMS5003;61747;54.966;73.394;2022-08-21T03:03:15;6.00;6.00;3.00
65680;PMS5003;61747;54.966;73.394;2022-08-21T03:05:42;6.75;5.00;2.00
65680;PMS5003;61747;54.966;73.394;2022-08-21T03:08:08;8.50;6.00;2.00
65680;PMS5003;61747;54.966;73.394;2022-08-21T03:10:42;8.00;7.00;2.00
65680;PMS5003;61747;54.966;73.394;2022-08-21T03:13:08;8.00;6.00;4.00
65680;PMS5003;61747;54.966;73.394;2022-08-21T03:15:34;10.00;6.50;4.00
65680;PMS5003;61747;54.966;73.394;2022-08-21T03:18:00;9.00;6.00;2.00
65680;PMS5003;61747;54.966;73.394;2022-08-21T03:20:27;8.50;7.00;2.50
65680;PMS5003;61747;54.966;73.394;2022-08-21T03:22:56;5.50;5.50;2.75
65680;PMS5003;61747;54.966;73.394;2022-08-21T03:25:27;5.00;5.00;2.00
65680;PMS5003;61747;54.966;73.394;2022-08-21T03:27:58;5.00;5.00;1.00
65680;PMS5003;61747;54.966;73.394;2022-08-21T03:30:34;5.00;4.25;0.00
65680;PMS5003;61747;54.966;73.394;2022-08-21T03:33:00;5.00;3.50;0.00
65680;PMS5003;61747;54.966;73.394;2022-08-21T03:35:27;5.00;4.00;0.00
65680;PMS5003;61747;54.966;73.394;2022-08-21T03:37:53;3.00;2.00;0.00
65680;PMS5003;61747;54.966;73.394;2022-08-21T03:40:22;3.00;3.00;1.00
65680;PMS5003;61747;54.966;73.394;2022-08-21T03:42:49;4.75;3.00;1.00
65680;PMS5003;61747;54.966;73.394;2022-08-21T03:45:15;5.00;3.75;1.00
65680;PMS5003;61747;54.966;73.394;2022-08-21T03:50:23;5.00;4.25;0.00
65680;PMS5003;61747;54.966;73.394;2022-08-21T03:52:49;5.00;5.00;1.00
65680;PMS5003;61747;54.966;73.394;2022-08-21T03:55:16;4.00;4.00;0.00
65680;PMS5003;61747;54.966;73.394;2022-08-21T03:57:51;5.00;4.25;0.00
65680;PMS5003;61747;54.966;73.394;2022-08-21T04:00:17;7.00;5.00;0.00
65680;PMS5003;61747;54.966;73.394;2022-08-21T04:02:48;5.00;4.00;0.00
65680;PMS5003;61747;54.966;73.394;2022-08-21T04:05:24;5.00;4.00;0.00
65680;PMS5003;61747;54.966;73.394;2022-08-21T04:07:59;9.50;5.00;0.00
65680;PMS5003;61747;54.966;73.394;2022-08-21T04:10:36;5.00;5.00;0.00
65680;PMS5003;61747;54.966;73.394;2022-08-21T04:13:02;7.75;5.00;2.00
65680;PMS5003;61747;54.966;73.394;2022-08-21T04:15:31;8.25;5.00;1.25
65680;PMS5003;61747;54.966;73.394;2022-08-21T04:18:03;7.75;6.25;1.00
65680;PMS5003;61747;54.966;73.394;2022-08-21T04:20:29;7.00;7.00;2.00
65680;PMS5003;61747;54.966;73.394;2022-08-21T04:23:00;7.00;7.00;3.00
65680;PMS5003;61747;54.966;73.394;2022-08-21T04:25:26;11.00;7.75;3.00
65680;PMS5003;61747;54.966;73.394;2022-08-21T04:27:52;5.00;5.00;2.00
65680;PMS5003;61747;54.966;73.394;2022-08-21T04:30:25;7.00;6.50;4.00
65680;PMS5003;61747;54.966;73.394;2022-08-21T04:33:01;6.00;6.00;3.00
65680;PMS5003;61747;54.966;73.394;2022-08-21T04:35:28;7.75;6.25;3.00
65680;PMS5003;61747;54.966;73.394;2022-08-21T04:37:54;9.00;5.00;3.00
65680;PMS5003;61747;54.966;73.394;2022-08-21T04:40:20;8.00;6.75;2.00
65680;PMS5003;61747;54.966;73.394;2022-08-21T04:42:51;9.00;5.00;2.50
65680;PMS5003;61747;54.966;73.394;2022-08-21T04:45:21;6.00;5.00;3.00
65680;PMS5003;61747;54.966;73.394;2022-08-21T04:47:53;7.75;6.25;2.00
65680;PMS5003;61747;54.966;73.394;2022-08-21T04:50:41;7.00;6.00;2.00
65680;PMS5003;61747;54.966;73.394;2022-08-21T04:53:10;7.00;6.00;1.00
65680;PMS5003;61747;54.966;73.394;2022-08-21T04:55:42;11.25;8.75;2.00
65680;PMS5003;61747;54.966;73.394;2022-08-21T04:58:09;11.25;7.00;3.00
65680;PMS5003;61747;54.966;73.394;2022-08-21T05:00:37;12.75;6.00;2.00
65680;PMS5003;61747;54.966;73.394;2022-08-21T05:03:04;8.50;6.00;1.00
65680;PMS5003;61747;54.966;73.394;2022-08-21T05:05:32;7.50;5.50;1.25
65680;PMS5003;61747;54.966;73.394;2022-08-21T05:08:00;7.25;6.00;3.25
65680;PMS5003;61747;54.966;73.394;2022-08-21T05:10:27;11.00;8.25;3.00
65680;PMS5003;61747;54.966;73.394;2022-08-21T05:12:53;10.00;7.00;4.00
65680;PMS5003;61747;54.966;73.394;2022-08-21T05:15:19;9.00;7.25;4.00
65680;PMS5003;61747;54.966;73.394;2022-08-21T05:17:45;9.00;8.00;4.00
65680;PMS5003;61747;54.966;73.394;2022-08-21T05:20:21;9.25;8.50;4.00
65680;PMS5003;61747;54.966;73.394;2022-08-21T05:22:46;8.50;7.00;4.00
65680;PMS5003;61747;54.966;73.394;2022-08-21T05:25:19;10.75;9.00;4.00
65680;PMS5003;61747;54.966;73.394;2022-08-21T05:27:45;15.50;10.00;4.00
65680;PMS5003;61747;54.966;73.394;2022-08-21T05:30:21;17.00;9.50;4.50
65680;PMS5003;61747;54.966;73.394;2022-08-21T05:32:47;16.00;14.00;5.00
65680;PMS5003;61747;54.966;73.394;2022-08-21T05:35:22;18.00;14.00;5.00
65680;PMS5003;61747;54.966;73.394;2022-08-21T05:37:48;17.33;13.00;5.00
65680;PMS5003;61747;54.966;73.394;2022-08-21T05:40:18;17.00;15.00;5.00
65680;PMS5003;61747;54.966;73.394;2022-08-21T05:42:45;16.50;14.00;5.00
65680;PMS5003;61747;54.966;73.394;2022-08-21T05:45:21;16.00;14.00;5.00
65680;PMS5003;61747;54.966;73.394;2022-08-21T05:47:47;16.00;13.25;5.00
65680;PMS5003;61747;54.966;73.394;2022-08-21T05:50:18;18.50;15.50;5.00
65680;PMS5003;61747;54.966;73.394;2022-08-21T05:52:44;16.00;15.00;5.00
65680;PMS5003;61747;54.966;73.394;2022-08-21T05:55:09;16.00;12.00;5.00
65680;PMS5003;61747;54.966;73.394;2022-08-21T05:57:35;16.33;13.00;5.00
65680;PMS5003;61747;54.966;73.394;2022-08-21T06:00:01;15.00;11.00;5.00
65680;PMS5003;61747;54.966;73.394;2022-08-21T06:02:27;17.00;12.00;5.25
65680;PMS5003;61747;54.966;73.394;2022-08-21T06:04:52;18.00;11.00;4.00
65680;PMS5003;61747;54.966;73.394;2022-08-21T06:07:21;16.00;12.00;4.50
65680;PMS5003;61747;54.966;73.394;2022-08-21T06:09:47;15.00;11.33;5.00
65680;PMS5003;61747;54.966;73.394;2022-08-21T06:12:13;15.00;13.00;5.00
65680;PMS5003;61747;54.966;73.394;2022-08-21T06:14:39;16.00;12.00;5.00
65680;PMS5003;61747;54.966;73.394;2022-08-21T06:17:06;14.00;11.00;4.25
65680;PMS5003;61747;54.966;73.394;2022-08-21T06:19:33;15.50;10.75;5.50
65680;PMS5003;61747;54.966;73.394;2022-08-21T06:22:08;14.00;11.50;5.00
65680;PMS5003;61747;54.966;73.394;2022-08-21T06:24:39;12.00;9.50;3.00
65680;PMS5003;61747;54.966;73.394;2022-08-21T06:27:05;8.00;6.00;3.00
65680;PMS5003;61747;54.966;73.394;2022-08-21T06:29:31;7.00;6.00;3.00
65680;PMS5003;61747;54.966;73.394;2022-08-21T06:31:57;6.00;4.75;3.00
65680;PMS5003;61747;54.966;73.394;2022-08-21T06:34:23;5.00;4.00;2.00
65680;PMS5003;61747;54.966;73.394;2022-08-21T06:36:49;2.00;2.00;1.00
65680;PMS5003;61747;54.966;73.394;2022-08-21T06:39:15;2.00;2.00;0.00
65680;PMS5003;61747;54.966;73.394;2022-08-21T06:41:46;2.50;2.00;0.00
65680;PMS5003;61747;54.966;73.394;2022-08-21T06:44:18;2.50;1.50;0.00
65680;PMS5003;61747;54.966;73.394;2022-08-21T06:46:49;4.00;4.00;0.00
65680;PMS5003;61747;54.966;73.394;2022-08-21T06:49:19;0.50;0.50;0.00
65680;PMS5003;61747;54.966;73.394;2022-08-21T06:51:45;5.33;3.67;0.00
65680;PMS5003;61747;54.966;73.394;2022-08-21T06:54:10;4.00;4.00;1.00
65680;PMS5003;61747;54.966;73.394;2022-08-21T06:56:36;2.00;1.00;1.00
65680;PMS5003;61747;54.966;73.394;2022-08-21T06:59:04;6.50;5.00;1.50
65680;PMS5003;61747;54.966;73.394;2022-08-21T07:01:36;1.00;1.00;1.00
65680;PMS5003;61747;54.966;73.394;2022-08-21T07:04:07;2.00;2.00;0.00
65680;PMS5003;61747;54.966;73.394;2022-08-21T07:06:36;2.00;2.00;0.00
65680;PMS5003;61747;54.966;73.394;2022-08-21T07:09:12;2.00;2.00;0.00
65680;PMS5003;61747;54.966;73.394;2022-08-21T07:11:43;2.00;2.00;0.00
65680;PMS5003;61747;54.966;73.394;2022-08-21T07:14:10;3.00;3.00;0.00
65680;PMS5003;61747;54.966;73.394;2022-08-21T07:16:36;1.00;1.00;0.00
65680;PMS5003;61747;54.966;73.394;2022-08-21T07:19:02;3.00;2.00;0.00
65680;PMS5003;61747;54.966;73.394;2022-08-21T07:21:27;2.00;2.00;0.00
65680;PMS5003;61747;54.966;73.394;2022-08-21T07:24:01;3.00;3.00;0.00
65680;PMS5003;61747;54.966;73.394;2022-08-21T07:26:27;0.00;0.00;0.00
65680;PMS5003;61747;54.966;73.394;2022-08-21T07:28:53;3.00;2.00;0.00
65680;PMS5003;61747;54.966;73.394;2022-08-21T07:31:28;0.00;0.00;0.00
65680;PMS5003;61747;54.966;73.394;2022-08-21T07:33:54;2.00;1.00;0.00
65680;PMS5003;61747;54.966;73.394;2022-08-21T07:36:29;0.00;0.00;0.00
65680;PMS5003;61747;54.966;73.394;2022-08-21T07:38:55;0.00;0.00;0.00
65680;PMS5003;61747;54.966;73.394;2022-08-21T07:41:26;0.00;0.00;0.00
65680;PMS5003;61747;54.966;73.394;2022-08-21T07:43:55;0.00;0.00;0.00
65680;PMS5003;61747;54.966;73.394;2022-08-21T07:46:22;0.00;0.00;0.00
65680;PMS5003;61747;54.966;73.394;2022-08-21T07:48:48;0.00;0.00;0.00
65680;PMS5003;61747;54.966;73.394;2022-08-21T07:51:14;0.00;0.00;0.00
65680;PMS5003;61747;54.966;73.394;2022-08-21T07:53:40;0.00;0.00;0.00
65680;PMS5003;61747;54.966;73.394;2022-08-21T07:56:06;0.00;0.00;0.00
65680;PMS5003;61747;54.966;73.394;2022-08-21T07:58:33;0.00;0.00;0.00
65680;PMS5003;61747;54.966;73.394;2022-08-21T08:00:59;0.00;0.00;0.00
65680;PMS5003;61747;54.966;73.394;2022-08-21T08:03:26;0.00;0.00;0.00
65680;PMS5003;61747;54.966;73.394;2022-08-21T08:05:56;3.00;2.25;0.00
65680;PMS5003;61747;54.966;73.394;2022-08-21T08:08:23;0.00;0.00;0.00
65680;PMS5003;61747;54.966;73.394;2022-08-21T08:10:49;0.00;0.00;0.00
65680;PMS5003;61747;54.966;73.394;2022-08-21T08:13:15;0.00;0.00;0.00
65680;PMS5003;61747;54.966;73.394;2022-08-21T08:15:41;0.00;0.00;0.00
65680;PMS5003;61747;54.966;73.394;2022-08-21T08:18:06;0.00;0.00;0.00
65680;PMS5003;61747;54.966;73.394;2022-08-21T08:20:32;0.00;0.00;0.00
65680;PMS5003;61747;54.966;73.394;2022-08-21T08:22:58;0.00;0.00;0.00
65680;PMS5003;61747;54.966;73.394;2022-08-21T08:25:34;0.00;0.00;0.00
65680;PMS5003;61747;54.966;73.394;2022-08-21T08:28:00;0.00;0.00;0.00
65680;PMS5003;61747;54.966;73.394;2022-08-21T08:30:26;0.00;0.00;0.00
65680;PMS5003;61747;54.966;73.394;2022-08-21T08:32:52;0.00;0.00;0.00
65680;PMS5003;61747;54.966;73.394;2022-08-21T08:35:24;0.00;0.00;0.00
65680;PMS5003;61747;54.966;73.394;2022-08-21T08:37:50;0.00;0.00;0.00
65680;PMS5003;61747;54.966;73.394;2022-08-21T08:40:30;0.00;0.00;0.00
65680;PMS5003;61747;54.966;73.394;2022-08-21T08:42:59;0.00;0.00;0.00
65680;PMS5003;61747;54.966;73.394;2022-08-21T08:45:25;0.00;0.00;0.00
65680;PMS5003;61747;54.966;73.394;2022-08-21T08:48:02;0.00;0.00;0.00
65680;PMS5003;61747;54.966;73.394;2022-08-21T08:50:42;0.00;0.00;0.00
65680;PMS5003;61747;54.966;73.394;2022-08-21T08:53:20;0.00;0.00;0.00
65680;PMS5003;61747;54.966;73.394;2022-08-21T08:55:57;0.00;0.00;0.00
65680;PMS5003;61747;54.966;73.394;2022-08-21T08:58:33;0.00;0.00;0.00
65680;PMS5003;61747;54.966;73.394;2022-08-21T09:01:03;0.00;0.00;0.00
65680;PMS5003;61747;54.966;73.394;2022-08-21T09:03:40;0.00;0.00;0.00
65680;PMS5003;61747;54.966;73.394;2022-08-21T09:11:10;0.00;0.00;0.00
65680;PMS5003;61747;54.966;73.394;2022-08-21T09:13:48;0.00;0.00;0.00
65680;PMS5003;61747;54.966;73.394;2022-08-21T09:19:18;0.50;0.00;0.00
65680;PMS5003;61747;54.966;73.394;2022-08-21T09:29:17;0.00;0.00;0.00
65680;PMS5003;61747;54.966;73.394;2022-08-21T09:31:46;0.00;0.00;0.00
65680;PMS5003;61747;54.966;73.394;2022-08-21T09:34:12;0.00;0.00;0.00
65680;PMS5003;61747;54.966;73.394;2022-08-21T09:36:43;0.00;0.00;0.00
65680;PMS5003;61747;54.966;73.394;2022-08-21T09:39:21;0.00;0.00;0.00
65680;PMS5003;61747;54.966;73.394;2022-08-21T09:41:59;0.00;0.00;0.00
65680;PMS5003;61747;54.966;73.394;2022-08-21T09:44:27;0.00;0.00;0.00
65680;PMS5003;61747;54.966;73.394;2022-08-21T09:46:53;0.00;0.00;0.00
65680;PMS5003;61747;54.966;73.394;2022-08-21T09:49:29;0.00;0.00;0.00
65680;PMS5003;61747;54.966;73.394;2022-08-21T09:51:55;0.00;0.00;0.00
65680;PMS5003;61747;54.966;73.394;2022-08-21T09:54:23;0.00;0.00;0.00
65680;PMS5003;61747;54.966;73.394;2022-08-21T09:59:35;0.00;0.00;0.00
65680;PMS5003;61747;54.966;73.394;2022-08-21T10:02:27;0.00;0.00;0.00
65680;PMS5003;61747;54.966;73.394;2022-08-21T10:04:55;0.00;0.00;0.00
65680;PMS5003;61747;54.966;73.394;2022-08-21T10:07:22;0.00;0.00;0.00
65680;PMS5003;61747;54.966;73.394;2022-08-21T10:10:03;0.00;0.00;0.00
65680;PMS5003;61747;54.966;73.394;2022-08-21T10:13:01;0.00;0.00;0.00
65680;PMS5003;61747;54.966;73.394;2022-08-21T10:15:22;0.00;0.00;0.00
65680;PMS5003;61747;54.966;73.394;2022-08-21T10:18:01;0.00;0.00;0.00
65680;PMS5003;61747;54.966;73.394;2022-08-21T10:20:34;0.00;0.00;0.00
65680;PMS5003;61747;54.966;73.394;2022-08-21T10:28:21;0.00;0.00;0.00
65680;PMS5003;61747;54.966;73.394;2022-08-21T10:30:50;0.00;0.00;0.00
65680;PMS5003;61747;54.966;73.394;2022-08-21T10:33:33;0.00;0.00;0.00
65680;PMS5003;61747;54.966;73.394;2022-08-21T10:44:04;0.00;0.00;0.00
65680;PMS5003;61747;54.966;73.394;2022-08-21T10:54:12;1.00;0.00;0.00
65680;PMS5003;61747;54.966;73.394;2022-08-21T10:56:42;3.50;2.00;0.00
65680;PMS5003;61747;54.966;73.394;2022-08-21T11:01:56;2.50;2.00;0.00
65680;PMS5003;61747;54.966;73.394;2022-08-21T11:04:25;0.00;0.00;0.00
65680;PMS5003;61747;54.966;73.394;2022-08-21T11:07:01;1.00;0.00;0.00
65680;PMS5003;61747;54.966;73.394;2022-08-21T11:09:37;0.00;0.00;0.00
65680;PMS5003;61747;54.966;73.394;2022-08-21T11:12:17;2.00;0.00;0.00
65680;PMS5003;61747;54.966;73.394;2022-08-21T11:15:00;1.00;0.00;0.00
65680;PMS5003;61747;54.966;73.394;2022-08-21T11:17:32;3.75;1.00;0.00
65680;PMS5003;61747;54.966;73.394;2022-08-21T11:20:02;2.25;1.00;0.00
65680;PMS5003;61747;54.966;73.394;2022-08-21T11:22:44;0.00;0.00;0.00
65680;PMS5003;61747;54.966;73.394;2022-08-21T11:27:54;2.00;0.00;0.00
65680;PMS5003;61747;54.966;73.394;2022-08-21T11:30:23;2.00;1.00;0.00
65680;PMS5003;61747;54.966;73.394;2022-08-21T11:33:15;2.00;1.00;0.00
65680;PMS5003;61747;54.966;73.394;2022-08-21T11:38:19;0.00;0.00;0.00
65680;PMS5003;61747;54.966;73.394;2022-08-21T11:46:11;0.00;0.00;0.00
65680;PMS5003;61747;54.966;73.394;2022-08-21T11:49:26;0.75;0.00;0.00
65680;PMS5003;61747;54.966;73.394;2022-08-21T11:51:33;2.00;1.00;0.00
65680;PMS5003;61747;54.966;73.394;2022-08-21T11:54:13;0.00;0.00;0.00
65680;PMS5003;61747;54.966;73.394;2022-08-21T11:56:46;1.25;0.00;0.00
65680;PMS5003;61747;54.966;73.394;2022-08-21T11:59:26;2.25;1.00;0.00
65680;PMS5003;61747;54.966;73.394;2022-08-21T12:02:13;2.75;1.00;0.00
65680;PMS5003;61747;54.966;73.394;2022-08-21T12:05:00;2.25;0.00;0.00
65680;PMS5003;61747;54.966;73.394;2022-08-21T12:07:32;0.25;0.00;0.00
65680;PMS5003;61747;54.966;73.394;2022-08-21T12:10:15;0.50;0.00;0.00
65680;PMS5003;61747;54.966;73.394;2022-08-21T12:12:43;0.00;0.00;0.00
65680;PMS5003;61747;54.966;73.394;2022-08-21T12:17:39;0.75;0.75;0.00
65680;PMS5003;61747;54.966;73.394;2022-08-21T12:20:57;2.00;1.00;0.00
65680;PMS5003;61747;54.966;73.394;2022-08-21T12:23:01;1.50;0.00;0.00
65680;PMS5003;61747;54.966;73.394;2022-08-21T12:25:35;0.00;0.00;0.00
65680;PMS5003;61747;54.966;73.394;2022-08-21T12:28:08;0.50;0.00;0.00
65680;PMS5003;61747;54.966;73.394;2022-08-21T12:30:40;1.00;0.25;0.00
65680;PMS5003;61747;54.966;73.394;2022-08-21T12:33:23;3.75;3.75;0.00
65680;PMS5003;61747;54.966;73.394;2022-08-21T12:36:01;2.50;2.25;0.00
65680;PMS5003;61747;54.966;73.394;2022-08-21T12:41:11;4.00;3.00;0.00
65680;PMS5003;61747;54.966;73.394;2022-08-21T12:43:41;2.00;1.00;0.00
65680;PMS5003;61747;54.966;73.394;2022-08-21T12:46:16;0.00;0.00;0.00
65680;PMS5003;61747;54.966;73.394;2022-08-21T12:48:52;0.00;0.00;0.00
65680;PMS5003;61747;54.966;73.394;2022-08-21T12:51:24;0.00;0.00;0.00
65680;PMS5003;61747;54.966;73.394;2022-08-21T12:53:52;0.00;0.00;0.00
65680;PMS5003;61747;54.966;73.394;2022-08-21T12:56:22;0.00;0.00;0.00
65680;PMS5003;61747;54.966;73.394;2022-08-21T12:58:59;1.25;0.00;0.00
65680;PMS5003;61747;54.966;73.394;2022-08-21T13:01:30;3.50;1.00;0.00
65680;PMS5003;61747;54.966;73.394;2022-08-21T13:03:57;2.00;0.50;0.00
65680;PMS5003;61747;54.966;73.394;2022-08-21T13:06:24;1.50;1.50;0.00
65680;PMS5003;61747;54.966;73.394;2022-08-21T13:08:54;1.50;0.25;0.00
65680;PMS5003;61747;54.966;73.394;2022-08-21T13:11:25;0.00;0.00;0.00
65680;PMS5003;61747;54.966;73.394;2022-08-21T13:13:51;0.00;0.00;0.00
65680;PMS5003;61747;54.966;73.394;2022-08-21T13:16:26;0.75;0.00;0.00
65680;PMS5003;61747;54.966;73.394;2022-08-21T13:19:03;1.75;0.00;0.00
65680;PMS5003;61747;54.966;73.394;2022-08-21T13:21:35;2.00;0.00;0.00
65680;PMS5003;61747;54.966;73.394;2022-08-21T13:24:17;0.25;0.00;0.00
65680;PMS5003;61747;54.966;73.394;2022-08-21T13:26:43;0.00;0.00;0.00
65680;PMS5003;61747;54.966;73.394;2022-08-21T13:29:11;0.00;0.00;0.00
65680;PMS5003;61747;54.966;73.394;2022-08-21T13:31:37;1.00;0.00;0.00
65680;PMS5003;61747;54.966;73.394;2022-08-21T13:34:09;0.00;0.00;0.00
65680;PMS5003;61747;54.966;73.394;2022-08-21T13:36:37;1.00;0.00;0.00
65680;PMS5003;61747;54.966;73.394;2022-08-21T13:39:16;2.75;1.00;0.00
65680;PMS5003;61747;54.966;73.394;2022-08-21T13:41:44;2.00;2.00;0.00
65680;PMS5003;61747;54.966;73.394;2022-08-21T13:44:15;0.50;0.00;0.00
65680;PMS5003;61747;54.966;73.394;2022-08-21T13:46:50;0.00;0.00;0.00
65680;PMS5003;61747;54.966;73.394;2022-08-21T13:49:24;3.00;2.50;0.00
65680;PMS5003;61747;54.966;73.394;2022-08-21T13:51:51;1.00;1.00;0.00
65680;PMS5003;61747;54.966;73.394;2022-08-21T13:54:29;2.00;1.50;0.00
65680;PMS5003;61747;54.966;73.394;2022-08-21T13:56:55;2.00;1.00;0.00
65680;PMS5003;61747;54.966;73.394;2022-08-21T13:59:25;3.00;1.00;0.00
65680;PMS5003;61747;54.966;73.394;2022-08-21T14:01:59;3.25;0.25;0.00
65680;PMS5003;61747;54.966;73.394;2022-08-21T14:04:35;2.00;2.00;0.00
65680;PMS5003;61747;54.966;73.394;2022-08-21T14:07:02;4.00;3.25;0.00
65680;PMS5003;61747;54.966;73.394;2022-08-21T14:09:33;2.00;1.00;0.00
65680;PMS5003;61747;54.966;73.394;2022-08-21T14:12:01;0.00;0.00;0.00
65680;PMS5003;61747;54.966;73.394;2022-08-21T14:14:31;1.00;0.00;0.00
65680;PMS5003;61747;54.966;73.394;2022-08-21T14:17:03;0.00;0.00;0.00
65680;PMS5003;61747;54.966;73.394;2022-08-21T14:19:37;0.50;0.00;0.00
65680;PMS5003;61747;54.966;73.394;2022-08-21T14:25:10;0.00;0.00;0.00
65680;PMS5003;61747;54.966;73.394;2022-08-21T14:27:38;2.00;0.00;0.00
65680;PMS5003;61747;54.966;73.394;2022-08-21T14:30:17;1.00;0.75;0.00
65680;PMS5003;61747;54.966;73.394;2022-08-21T14:32:43;3.00;2.75;0.00
65680;PMS5003;61747;54.966;73.394;2022-08-21T14:35:10;1.00;0.50;0.00
65680;PMS5003;61747;54.966;73.394;2022-08-21T14:37:36;0.00;0.00;0.00
65680;PMS5003;61747;54.966;73.394;2022-08-21T14:40:02;0.00;0.00;0.00
65680;PMS5003;61747;54.966;73.394;2022-08-21T14:42:28;0.00;0.00;0.00
65680;PMS5003;61747;54.966;73.394;2022-08-21T14:44:55;0.00;0.00;0.00
65680;PMS5003;61747;54.966;73.394;2022-08-21T14:47:28;0.00;0.00;0.00
65680;PMS5003;61747;54.966;73.394;2022-08-21T14:49:54;1.00;1.00;0.00
65680;PMS5003;61747;54.966;73.394;2022-08-21T14:52:20;0.00;0.00;0.00
65680;PMS5003;61747;54.966;73.394;2022-08-21T14:54:45;0.00;0.00;0.00
65680;PMS5003;61747;54.966;73.394;2022-08-21T14:57:11;0.25;0.00;0.00
65680;PMS5003;61747;54.966;73.394;2022-08-21T14:59:38;2.00;1.00;0.00
65680;PMS5003;61747;54.966;73.394;2022-08-21T15:02:09;1.00;0.00;0.00
65680;PMS5003;61747;54.966;73.394;2022-08-21T15:04:35;4.00;2.00;0.00
65680;PMS5003;61747;54.966;73.394;2022-08-21T15:07:00;4.67;3.67;0.67
65680;PMS5003;61747;54.966;73.394;2022-08-21T15:09:36;4.50;4.00;0.00
65680;PMS5003;61747;54.966;73.394;2022-08-21T15:12:02;4.00;3.00;0.00
65680;PMS5003;61747;54.966;73.394;2022-08-21T15:14:34;5.00;4.00;0.75
65680;PMS5003;61747;54.966;73.394;2022-08-21T15:17:02;4.00;4.00;0.00
65680;PMS5003;61747;54.966;73.394;2022-08-21T15:19:29;4.00;3.75;0.00
65680;PMS5003;61747;54.966;73.394;2022-08-21T15:21:55;4.00;4.00;0.00
65680;PMS5003;61747;54.966;73.394;2022-08-21T15:24:21;4.00;3.50;0.00
65680;PMS5003;61747;54.966;73.394;2022-08-21T15:26:52;4.00;4.00;0.00
65680;PMS5003;61747;54.966;73.394;2022-08-21T15:29:18;4.00;4.00;0.00